OKBK Airport Information

Runway Information
Runway 15L Length 11483 ft width 148 ft
Elevation 161 ft Threshold 0 ft Heading 155
Runway 33R Length 11483 ft Width 148 ft
Elevation 206 ft Threshold 0 ft Heading 335
Runway 15R Length 11155 ft width 148 ft
Elevation 134 ft Threshold 0 ft Heading 155
Runway 33L Length 11155 ft Width 148 ft
Elevation 170 ft Threshold 0 ft Heading 335
Airport Frequencies
Type APP Name APP Frequency 121.3 MHZ
Type ATIS Name ATIS Frequency 126.225 MHZ
Type GND Name GND Frequency 121.7 MHZ
Type TWR Name TWR Frequency 118.3 MHZ
Airport Navaids
Type VOR-DME Name Kuwait Frequency 115500 KHZ
Airport Weather Information & NOTAM
ADDS - METARS form results

(0118 UTC 26 February 2018)
 
METAR text: OKBK 260100Z 20004KT 4000 BR NSC 13/11 Q1015 NOSIG
Conditions at: OKBK (KUWAIT INTL (MIL, KW) observed 0100 UTC 26 February 2018
Temperature: 13.0°C (55°F)
Dewpoint: 11.0°C (52°F) [RH = 88%]
Pressure (altimeter): 29.97 inches Hg (1015.0 mb)
Winds: from the SSW (200 degrees) at 5 MPH (4 knots; 2.1 m/s)
Visibility: 2.49 miles (4.01 km)
Ceiling: at least 12,000 feet AGL
Clouds: sky clear below 12,000 feet AGL
Weather: BR  (mist)